Time;durP1;ratioP1;P1;durP2;ratioP2;P2;SDS_P1;SDS_P2;PMS_P1;PMS_P2;Temp;Humidity;BMP_temperature;BMP_pressure;BME280_temperature;BME280_humidity;BME280_pressure;Samples;Min_cycle;Max_cycle;Signal;HPM_P1;HPM_P2
2021/10/07 00:00:10;;;;;;;1.53;1.00;;;13.10;98.20;;;;;;5015175;28;21294;-78
2021/10/07 00:02:37;;;;;;;1.80;1.30;;;13.10;98.20;;;;;;5020283;28;20487;-79
2021/10/07 00:05:05;;;;;;;1.53;1.00;;;13.10;98.20;;;;;;5018889;28;20559;-78
2021/10/07 00:07:33;;;;;;;1.60;1.10;;;13.10;98.20;;;;;;5016257;28;20483;-78
2021/10/07 00:10:00;;;;;;;1.53;1.00;;;13.10;98.20;;;;;;5015705;28;20495;-79
2021/10/07 00:12:26;;;;;;;1.57;1.10;;;13.10;98.20;;;;;;5020936;28;20569;-79
2021/10/07 00:14:53;;;;;;;1.53;1.10;;;13.20;98.20;;;;;;5021280;28;20468;-78
2021/10/07 00:17:20;;;;;;;1.53;1.00;;;13.20;98.20;;;;;;5019738;28;20486;-79
2021/10/07 00:19:47;;;;;;;1.50;1.00;;;13.20;98.20;;;;;;5022645;28;20555;-78
2021/10/07 00:22:14;;;;;;;1.53;1.10;;;13.20;98.20;;;;;;5015372;28;20475;-79
2021/10/07 00:24:42;;;;;;;1.50;1.00;;;13.20;98.20;;;;;;5020534;28;21065;-78
2021/10/07 00:27:09;;;;;;;1.50;1.00;;;13.20;98.20;;;;;;5015187;28;20486;-79
2021/10/07 00:29:41;;;;;;;1.50;1.00;;;13.20;98.20;;;;;;5019872;28;20486;-79
2021/10/07 00:32:11;;;;;;;1.57;1.00;;;13.20;98.20;;;;;;5015852;28;20486;-80
2021/10/07 00:37:26;;;;;;;1.60;1.20;;;13.20;98.20;;;;;;5011997;28;20592;-78
2021/10/07 00:39:54;;;;;;;1.53;1.10;;;13.20;98.20;;;;;;5015449;28;20471;-78
2021/10/07 00:42:21;;;;;;;1.50;1.00;;;13.20;98.20;;;;;;5013397;28;20495;-78
2021/10/07 00:44:49;;;;;;;1.50;1.00;;;13.20;98.20;;;;;;5016776;28;20468;-78
2021/10/07 00:47:18;;;;;;;1.50;1.00;;;13.20;98.20;;;;;;5002198;28;20488;-77
2021/10/07 00:49:45;;;;;;;1.50;1.00;;;13.20;98.20;;;;;;5014369;28;20514;-77
2021/10/07 00:52:15;;;;;;;1.53;1.07;;;13.20;98.20;;;;;;5015489;28;20490;-78
2021/10/07 00:54:45;;;;;;;1.53;1.10;;;13.20;98.20;;;;;;5015420;28;20492;-79
2021/10/07 00:57:17;;;;;;;1.50;1.00;;;13.20;98.20;;;;;;5009210;28;20491;-79
2021/10/07 00:59:44;;;;;;;1.60;1.10;;;13.20;98.20;;;;;;5015416;28;20957;-79
2021/10/07 01:02:10;;;;;;;1.53;1.10;;;13.30;98.20;;;;;;5016041;28;20485;-79
2021/10/07 01:04:37;;;;;;;1.60;1.10;;;13.30;98.20;;;;;;5016324;28;20464;-78
2021/10/07 01:07:06;;;;;;;1.50;1.00;;;13.30;98.20;;;;;;5010464;28;20483;-79
2021/10/07 01:09:34;;;;;;;1.53;1.00;;;13.20;98.20;;;;;;5018418;28;20838;-77
2021/10/07 01:12:04;;;;;;;1.57;1.00;;;13.20;98.20;;;;;;5008601;28;20518;-78
2021/10/07 01:14:44;;;;;;;1.60;1.10;;;13.20;98.20;;;;;;5010989;28;20464;-78
2021/10/07 01:17:12;;;;;;;1.50;1.00;;;13.20;98.20;;;;;;5015578;28;20544;-78
2021/10/07 01:19:41;;;;;;;1.53;1.00;;;13.20;98.20;;;;;;5014134;28;20474;-77
2021/10/07 01:22:08;;;;;;;1.57;1.10;;;13.20;98.20;;;;;;4994817;28;20970;-79
2021/10/07 01:24:35;;;;;;;1.50;1.00;;;13.20;98.20;;;;;;5014213;28;20499;-79
2021/10/07 01:27:03;;;;;;;1.50;1.00;;;13.20;98.20;;;;;;5012166;28;20499;-77
2021/10/07 01:29:30;;;;;;;1.50;1.00;;;13.30;98.20;;;;;;5019555;28;20495;-77
2021/10/07 01:31:58;;;;;;;1.50;0.90;;;13.30;98.20;;;;;;5012210;28;20502;-77
2021/10/07 01:34:27;;;;;;;1.53;1.00;;;13.30;98.20;;;;;;5016551;28;20464;-77
2021/10/07 01:36:56;;;;;;;1.50;1.00;;;13.30;98.20;;;;;;5003670;28;20493;-78
2021/10/07 01:39:23;;;;;;;1.53;1.00;;;13.30;98.20;;;;;;5021275;28;20571;-79
2021/10/07 01:41:50;;;;;;;1.50;1.00;;;13.30;98.20;;;;;;5009961;28;20529;-79
2021/10/07 01:44:19;;;;;;;1.50;1.00;;;13.30;98.20;;;;;;5023349;28;20546;-79
2021/10/07 01:46:46;;;;;;;1.57;1.07;;;13.30;98.20;;;;;;5000982;28;20507;-77
2021/10/07 01:49:13;;;;;;;1.60;1.10;;;13.30;98.20;;;;;;5008109;28;20483;-78
2021/10/07 01:51:40;;;;;;;1.53;1.10;;;13.30;98.20;;;;;;5008910;28;20491;-76
2021/10/07 01:54:08;;;;;;;1.53;1.10;;;13.30;98.20;;;;;;5022264;28;20467;-79
2021/10/07 01:56:35;;;;;;;1.53;1.00;;;13.30;98.20;;;;;;5009123;28;20566;-77
2021/10/07 01:59:05;;;;;;;1.50;1.00;;;13.30;98.20;;;;;;5026784;28;20549;-78
2021/10/07 02:01:32;;;;;;;1.50;1.00;;;13.30;98.20;;;;;;5006206;28;20569;-79
2021/10/07 02:03:58;;;;;;;1.50;1.07;;;13.30;98.20;;;;;;5024601;28;20460;-78
2021/10/07 02:06:25;;;;;;;1.50;1.00;;;13.30;98.20;;;;;;5008311;28;20475;-78
2021/10/07 02:08:52;;;;;;;1.50;1.00;;;13.30;98.20;;;;;;5032716;28;20484;-79
2021/10/07 02:11:20;;;;;;;1.57;1.10;;;13.30;98.20;;;;;;5004488;28;20483;-78
2021/10/07 02:13:47;;;;;;;1.53;1.07;;;13.30;98.20;;;;;;5025139;28;20491;-78
2021/10/07 02:16:14;;;;;;;1.50;1.00;;;13.30;98.20;;;;;;5004450;28;20479;-78
2021/10/07 02:18:41;;;;;;;1.50;1.10;;;13.30;98.20;;;;;;5025753;28;20476;-78
2021/10/07 02:21:08;;;;;;;1.53;1.00;;;13.30;98.20;;;;;;5000809;28;21230;-78
2021/10/07 02:23:35;;;;;;;1.50;1.00;;;13.30;98.20;;;;;;5027087;28;21120;-78
2021/10/07 02:26:02;;;;;;;1.57;1.00;;;13.30;98.20;;;;;;4997544;28;20839;-78
2021/10/07 02:28:30;;;;;;;1.50;1.00;;;13.30;98.20;;;;;;5027859;28;20480;-77
2021/10/07 02:30:58;;;;;;;1.50;1.00;;;13.30;98.20;;;;;;5002846;28;20484;-78
2021/10/07 02:33:24;;;;;;;1.50;1.10;;;13.30;98.20;;;;;;5028907;28;20505;-78
2021/10/07 02:35:51;;;;;;;1.50;1.10;;;13.30;98.20;;;;;;4997450;28;20464;-78
2021/10/07 02:38:18;;;;;;;1.53;1.00;;;13.30;98.20;;;;;;5028188;28;21005;-78
2021/10/07 02:40:45;;;;;;;1.60;1.10;;;13.30;98.20;;;;;;5010623;28;20591;-79
2021/10/07 02:43:12;;;;;;;1.53;1.00;;;13.30;98.20;;;;;;4997086;28;20554;-78
2021/10/07 02:45:40;;;;;;;1.53;1.10;;;13.20;98.20;;;;;;5009726;28;20540;-77
2021/10/07 02:48:07;;;;;;;1.53;1.10;;;13.20;98.20;;;;;;4993850;28;20479;-78
2021/10/07 02:50:34;;;;;;;1.50;0.90;;;13.20;98.20;;;;;;5009796;28;20484;-78
2021/10/07 02:53:00;;;;;;;1.53;1.00;;;13.20;98.20;;;;;;5018322;28;20479;-78
2021/10/07 02:55:27;;;;;;;1.50;1.10;;;13.20;98.20;;;;;;5010565;28;20475;-78
2021/10/07 02:57:54;;;;;;;1.53;1.00;;;13.20;98.20;;;;;;5013213;28;21151;-78
2021/10/07 03:00:21;;;;;;;1.57;1.10;;;13.20;98.20;;;;;;5019525;28;20483;-78
2021/10/07 03:02:49;;;;;;;1.50;1.00;;;13.10;98.20;;;;;;5012581;28;20492;-77
2021/10/07 03:05:16;;;;;;;1.50;1.00;;;13.10;98.20;;;;;;5013933;28;20468;-80
2021/10/07 03:07:43;;;;;;;1.60;1.10;;;13.10;98.20;;;;;;5019750;28;21059;-79
2021/10/07 03:10:10;;;;;;;1.60;1.10;;;13.10;98.20;;;;;;5020761;28;20494;-78
2021/10/07 03:12:37;;;;;;;1.53;1.00;;;13.10;98.20;;;;;;5011271;28;21020;-78
2021/10/07 03:15:05;;;;;;;1.50;1.10;;;13.10;98.20;;;;;;5019977;28;20769;-78
2021/10/07 03:17:32;;;;;;;1.53;1.00;;;13.10;98.20;;;;;;4996919;28;21021;-78
2021/10/07 03:20:00;;;;;;;1.53;1.00;;;13.10;98.20;;;;;;5016518;28;20472;-79
2021/10/07 03:22:27;;;;;;;1.60;1.10;;;13.00;98.20;;;;;;5004811;28;20480;-78
2021/10/07 03:24:54;;;;;;;1.60;1.20;;;13.10;98.20;;;;;;5017019;28;20467;-78
2021/10/07 03:27:21;;;;;;;1.53;1.00;;;13.10;98.20;;;;;;5007438;28;20491;-78
2021/10/07 03:29:48;;;;;;;1.57;1.00;;;13.00;98.20;;;;;;5014476;28;20456;-78
2021/10/07 03:32:17;;;;;;;1.53;1.00;;;13.00;98.20;;;;;;5015745;28;20493;-79
2021/10/07 03:34:44;;;;;;;1.57;1.00;;;13.10;98.20;;;;;;5013110;28;20460;-78
2021/10/07 03:37:12;;;;;;;1.60;1.10;;;13.10;98.20;;;;;;5007084;28;20858;-78
2021/10/07 03:39:39;;;;;;;1.50;0.97;;;13.10;98.20;;;;;;5017117;28;21005;-78
2021/10/07 03:42:06;;;;;;;1.50;1.00;;;13.10;98.20;;;;;;5013745;28;20482;-78
2021/10/07 03:44:33;;;;;;;1.60;1.10;;;13.10;98.20;;;;;;5013422;28;20499;-78
2021/10/07 03:47:00;;;;;;;1.60;1.10;;;13.10;98.20;;;;;;4995663;28;20545;-79
2021/10/07 03:49:26;;;;;;;1.50;1.00;;;13.10;98.20;;;;;;5014547;28;20470;-78
2021/10/07 03:51:53;;;;;;;1.70;1.40;;;13.10;98.20;;;;;;5014717;28;20523;-78
2021/10/07 03:54:22;;;;;;;1.50;1.00;;;13.10;98.20;;;;;;5016411;28;20843;-78
2021/10/07 03:56:48;;;;;;;1.60;1.10;;;13.10;98.20;;;;;;5008132;28;20490;-78
2021/10/07 03:59:15;;;;;;;3.83;2.33;;;13.10;98.20;;;;;;5026411;28;20479;-78
2021/10/07 04:01:42;;;;;;;1.50;1.00;;;13.10;98.20;;;;;;5007093;28;20482;-78
2021/10/07 04:04:09;;;;;;;1.53;1.00;;;13.10;98.20;;;;;;5020998;28;20660;-78
2021/10/07 04:06:36;;;;;;;1.53;1.00;;;13.10;98.20;;;;;;5008586;28;20475;-78
2021/10/07 04:09:03;;;;;;;1.53;1.00;;;13.10;98.20;;;;;;5024307;28;20476;-78
2021/10/07 04:11:31;;;;;;;1.60;1.10;;;13.10;98.20;;;;;;5005210;28;20475;-79
2021/10/07 04:13:58;;;;;;;1.50;1.00;;;13.10;98.20;;;;;;5028381;28;20471;-77
2021/10/07 04:16:25;;;;;;;1.60;1.20;;;13.20;98.20;;;;;;5008791;28;20482;-77
2021/10/07 04:18:52;;;;;;;1.50;1.00;;;13.20;98.20;;;;;;5027556;28;20508;-78
2021/10/07 04:21:19;;;;;;;1.60;1.10;;;13.10;98.20;;;;;;5005887;28;20467;-78
2021/10/07 04:23:46;;;;;;;1.50;1.00;;;13.20;98.20;;;;;;5024433;28;20460;-78
2021/10/07 04:26:12;;;;;;;1.60;1.10;;;13.20;98.20;;;;;;5004426;28;20474;-78
2021/10/07 04:28:41;;;;;;;1.57;1.00;;;13.20;98.20;;;;;;5030459;28;20579;-78
2021/10/07 04:31:07;;;;;;;1.53;1.07;;;13.20;98.20;;;;;;5002773;28;21079;-78
2021/10/07 04:33:37;;;;;;;1.50;0.97;;;13.10;98.20;;;;;;5027611;28;20475;-79
2021/10/07 04:36:04;;;;;;;1.50;0.93;;;13.10;98.20;;;;;;5010976;28;20468;-78
2021/10/07 04:38:31;;;;;;;1.50;1.00;;;13.10;98.20;;;;;;5027438;28;21026;-78
2021/10/07 04:41:29;;;;;;;1.50;0.93;;;13.10;98.20;;;;;;5007296;28;20559;-79
2021/10/07 04:43:57;;;;;;;1.60;1.00;;;13.10;98.20;;;;;;5023629;28;20468;-78
2021/10/07 04:46:24;;;;;;;1.50;1.00;;;13.10;98.20;;;;;;5007628;28;20920;-78
2021/10/07 04:48:54;;;;;;;1.50;1.07;;;13.10;98.20;;;;;;5020328;28;20479;-78
2021/10/07 04:51:26;;;;;;;1.57;1.10;;;13.10;98.20;;;;;;5003075;28;21061;-78
2021/10/07 04:53:53;;;;;;;1.50;0.97;;;13.10;98.20;;;;;;5021266;28;20872;-79
2021/10/07 04:56:20;;;;;;;1.53;1.00;;;13.10;98.20;;;;;;5008075;28;20478;-78
2021/10/07 04:58:47;;;;;;;1.53;1.03;;;13.10;98.20;;;;;;5022789;28;20484;-79
2021/10/07 05:01:19;;;;;;;1.57;1.00;;;13.10;98.20;;;;;;5010501;28;20865;-80
2021/10/07 05:03:46;;;;;;;1.57;1.10;;;13.10;98.20;;;;;;5031016;28;20462;-79
2021/10/07 05:06:13;;;;;;;1.60;1.10;;;13.00;98.20;;;;;;5007727;28;21674;-78
2021/10/07 05:08:42;;;;;;;1.57;1.10;;;13.00;98.20;;;;;;5026775;28;20985;-79
2021/10/07 05:11:09;;;;;;;1.60;1.10;;;13.00;98.20;;;;;;5010789;28;20537;-78
2021/10/07 05:13:35;;;;;;;1.50;1.00;;;13.00;98.20;;;;;;5029673;28;20807;-79
2021/10/07 05:16:02;;;;;;;1.60;1.10;;;13.00;98.20;;;;;;5006303;28;20859;-78
2021/10/07 05:18:31;;;;;;;1.50;1.00;;;13.00;98.20;;;;;;5034129;28;20990;-78
2021/10/07 05:20:57;;;;;;;1.57;1.00;;;13.00;98.20;;;;;;5003784;28;20483;-78
2021/10/07 05:23:24;;;;;;;1.60;1.00;;;13.00;98.20;;;;;;5023883;28;20487;-79
2021/10/07 05:25:51;;;;;;;1.50;1.00;;;13.00;98.20;;;;;;5005286;28;20987;-78
2021/10/07 05:28:18;;;;;;;1.57;1.00;;;13.00;98.20;;;;;;5027765;28;20580;-78
2021/10/07 05:30:45;;;;;;;2.17;1.97;;;12.90;98.20;;;;;;5016253;28;20520;-79
2021/10/07 05:33:15;;;;;;;1.50;1.00;;;12.90;98.20;;;;;;5004917;28;20894;-78
2021/10/07 05:35:44;;;;;;;1.50;1.00;;;12.90;98.20;;;;;;5012646;28;20854;-78
2021/10/07 05:38:10;;;;;;;1.53;1.00;;;12.80;98.20;;;;;;5023711;28;20929;-79
2021/10/07 05:40:37;;;;;;;1.57;1.00;;;12.80;98.20;;;;;;5014496;28;20940;-79
2021/10/07 05:43:04;;;;;;;1.57;1.00;;;12.70;98.20;;;;;;5022466;28;20555;-78
2021/10/07 05:45:31;;;;;;;1.60;1.10;;;12.70;98.20;;;;;;5011894;28;20634;-78
2021/10/07 05:47:59;;;;;;;1.53;1.00;;;12.70;98.20;;;;;;5018499;28;20495;-77
2021/10/07 05:50:27;;;;;;;1.57;1.00;;;12.70;98.20;;;;;;5014729;28;20483;-78
2021/10/07 05:52:57;;;;;;;1.53;1.00;;;12.60;98.20;;;;;;5017872;28;20499;-79
2021/10/07 05:55:27;;;;;;;1.53;1.00;;;12.60;98.20;;;;;;5013055;28;20467;-79
2021/10/07 05:57:54;;;;;;;1.57;1.10;;;12.60;98.20;;;;;;5023157;28;20542;-78
2021/10/07 06:00:22;;;;;;;1.57;1.10;;;12.50;98.20;;;;;;5018365;28;20464;-79
2021/10/07 06:02:49;;;;;;;1.50;1.10;;;12.50;98.20;;;;;;5018237;28;20491;-78
2021/10/07 06:05:16;;;;;;;1.50;1.10;;;12.50;98.20;;;;;;5012584;28;20472;-79
2021/10/07 06:07:43;;;;;;;1.53;1.00;;;12.50;98.20;;;;;;5017198;28;20479;-78
2021/10/07 06:10:14;;;;;;;1.50;1.00;;;12.40;98.20;;;;;;5017023;28;20489;-80
2021/10/07 06:12:42;;;;;;;1.60;1.20;;;12.40;98.20;;;;;;5016670;28;21087;-80
2021/10/07 06:15:11;;;;;;;1.53;1.10;;;12.40;98.20;;;;;;5014261;28;20471;-78
2021/10/07 06:17:38;;;;;;;1.60;1.10;;;12.40;98.20;;;;;;5015090;28;20487;-80
2021/10/07 06:20:29;;;;;;;1.53;1.10;;;12.40;98.20;;;;;;5013307;28;20460;-79
2021/10/07 06:23:17;;;;;;;1.53;1.10;;;12.50;98.20;;;;;;5019670;28;20490;-79
2021/10/07 06:33:12;;;;;;;1.53;1.00;;;12.70;98.20;;;;;;4952332;28;21007;-79
2021/10/07 06:42:55;;;;;;;1.50;1.00;;;13.10;98.20;;;;;;4920828;28;21059;-79
2021/10/07 06:52:10;;;;;;;1.53;1.00;;;13.40;98.20;;;;;;4931612;28;20499;-79
2021/10/07 07:01:24;;;;;;;1.57;1.10;;;13.40;98.20;;;;;;4961905;28;20470;-79
2021/10/07 07:20:16;;;;;;;1.53;1.00;;;13.80;98.20;;;;;;5016860;28;21031;-79
2021/10/07 07:25:41;;;;;;;1.60;1.07;;;13.90;98.20;;;;;;5010227;28;20472;-79
2021/10/07 07:28:14;;;;;;;1.53;1.00;;;13.90;98.20;;;;;;5013583;28;20998;-78
2021/10/07 07:30:43;;;;;;;1.57;1.00;;;14.00;98.20;;;;;;5005039;28;20468;-77
2021/10/07 07:33:09;;;;;;;1.60;1.00;;;14.10;98.20;;;;;;5013264;28;20572;-78
2021/10/07 07:35:42;;;;;;;1.57;1.10;;;14.10;98.20;;;;;;5010307;28;20468;-77
2021/10/07 07:38:09;;;;;;;1.57;1.00;;;14.20;98.20;;;;;;5010428;28;20487;-78
2021/10/07 07:40:38;;;;;;;1.53;1.00;;;14.20;98.20;;;;;;5004905;28;20489;-77
2021/10/07 07:43:07;;;;;;;1.57;1.10;;;14.30;98.20;;;;;;5009094;28;20470;-77
2021/10/07 07:45:34;;;;;;;1.57;1.00;;;14.30;98.20;;;;;;5012800;28;20460;-76
2021/10/07 07:48:01;;;;;;;1.50;1.00;;;14.30;98.20;;;;;;5018461;28;20478;-76
2021/10/07 07:50:39;;;;;;;1.57;1.00;;;14.40;98.20;;;;;;5014334;28;20464;-77
2021/10/07 07:53:16;;;;;;;1.57;1.00;;;14.40;98.20;;;;;;5016602;28;20506;-77
2021/10/07 07:58:58;;;;;;;1.60;1.10;;;14.50;98.20;;;;;;5002911;28;20936;-78
2021/10/07 08:01:27;;;;;;;1.53;0.90;;;14.60;98.20;;;;;;5002413;28;20871;-77
2021/10/07 08:03:56;;;;;;;1.57;1.00;;;14.70;98.20;;;;;;5023346;28;20554;-77
2021/10/07 08:06:27;;;;;;;1.60;1.00;;;14.80;98.20;;;;;;5006755;28;20483;-77
2021/10/07 08:08:56;;;;;;;1.57;1.00;;;14.90;98.20;;;;;;5023889;28;20479;-77
2021/10/07 08:11:29;;;;;;;1.53;0.90;;;15.00;98.20;;;;;;5003090;28;20485;-77
2021/10/07 08:16:39;;;;;;;1.60;1.00;;;15.10;98.20;;;;;;4997430;28;20487;-77
2021/10/07 08:19:09;;;;;;;1.53;0.90;;;15.20;98.20;;;;;;5021687;28;20529;-77
2021/10/07 08:21:40;;;;;;;1.60;0.90;;;15.40;98.20;;;;;;5002302;28;20570;-77
2021/10/07 08:24:11;;;;;;;1.60;1.00;;;15.50;98.20;;;;;;5019352;28;21150;-76
2021/10/07 08:26:42;;;;;;;1.60;1.00;;;15.60;98.20;;;;;;5004790;28;20491;-75
2021/10/07 08:29:12;;;;;;;1.60;1.00;;;15.70;98.20;;;;;;5021887;28;20601;-76
2021/10/07 08:31:39;;;;;;;1.60;0.90;;;15.70;98.20;;;;;;5008432;28;20905;-77
2021/10/07 08:34:18;;;;;;;1.60;0.97;;;15.70;98.20;;;;;;5023033;28;20460;-76
2021/10/07 08:36:47;;;;;;;1.60;1.00;;;15.70;98.20;;;;;;5010040;28;20497;-77
2021/10/07 08:39:17;;;;;;;1.57;1.00;;;15.70;98.20;;;;;;5015329;28;21029;-77
2021/10/07 08:41:47;;;;;;;1.53;0.97;;;15.80;98.20;;;;;;5004233;28;20490;-78
2021/10/07 08:44:20;;;;;;;1.60;0.90;;;15.90;98.20;;;;;;5024221;28;20541;-76
2021/10/07 08:46:48;;;;;;;1.80;1.30;;;16.10;98.20;;;;;;5011894;28;21021;-77
2021/10/07 08:49:17;;;;;;;1.60;1.00;;;16.30;98.20;;;;;;5020747;28;20488;-76
2021/10/07 08:51:52;;;;;;;1.60;1.00;;;16.50;98.20;;;;;;5009511;28;20525;-77
2021/10/07 08:54:21;;;;;;;1.60;1.00;;;16.60;98.20;;;;;;5017005;28;20471;-78
2021/10/07 08:56:49;;;;;;;1.60;1.00;;;16.80;98.20;;;;;;5004372;28;20479;-76
2021/10/07 08:59:18;;;;;;;1.60;1.00;;;17.00;98.20;;;;;;5021083;28;20537;-77
2021/10/07 09:01:50;;;;;;;1.60;1.10;;;17.20;98.20;;;;;;5009826;28;20491;-77
2021/10/07 09:04:23;;;;;;;1.80;1.50;;;17.40;98.20;;;;;;5020900;28;20463;-76
2021/10/07 09:07:13;;;;;;;1.60;1.00;;;17.60;98.20;;;;;;5003625;28;20582;-77
2021/10/07 09:09:44;;;;;;;1.60;1.00;;;17.70;98.20;;;;;;5016227;28;20464;-76
2021/10/07 09:12:14;;;;;;;1.53;1.00;;;17.60;98.20;;;;;;5010439;28;20928;-76
2021/10/07 09:14:43;;;;;;;1.60;1.00;;;17.50;98.20;;;;;;5014612;28;20476;-77
2021/10/07 09:17:12;;;;;;;1.57;1.00;;;17.40;98.20;;;;;;5005471;28;20901;-76
2021/10/07 09:19:42;;;;;;;1.53;0.90;;;17.20;98.20;;;;;;5011621;28;20466;-76
2021/10/07 09:22:18;;;;;;;1.60;1.10;;;17.20;98.20;;;;;;5012189;28;20482;-75
2021/10/07 09:24:49;;;;;;;1.53;0.97;;;17.10;98.20;;;;;;5010346;28;20521;-75
2021/10/07 09:30:07;;;;;;;1.53;1.00;;;16.90;98.20;;;;;;5014293;28;20801;-76
2021/10/07 09:32:37;;;;;;;1.57;1.00;;;16.60;98.20;;;;;;5018676;28;20487;-75
2021/10/07 09:35:06;;;;;;;1.60;1.00;;;16.40;98.20;;;;;;5007801;28;20472;-77
2021/10/07 09:37:35;;;;;;;2.80;1.70;;;16.20;98.20;;;;;;5012783;28;21380;-77
2021/10/07 09:40:08;;;;;;;1.50;1.00;;;16.10;98.20;;;;;;5011049;28;20478;-77
2021/10/07 09:42:37;;;;;;;1.53;0.90;;;15.90;98.20;;;;;;5008079;28;20525;-77
2021/10/07 09:45:10;;;;;;;1.60;1.00;;;15.80;98.20;;;;;;5020594;28;20806;-76
2021/10/07 09:47:40;;;;;;;1.50;0.90;;;15.90;98.20;;;;;;5008675;28;20586;-77
2021/10/07 09:50:13;;;;;;;1.57;1.00;;;15.90;98.20;;;;;;5011803;28;20466;-78
2021/10/07 09:52:43;;;;;;;1.57;0.97;;;15.90;98.20;;;;;;5014788;28;21004;-75
2021/10/07 09:55:13;;;;;;;1.57;1.00;;;15.90;98.20;;;;;;5016169;28;20506;-76
2021/10/07 09:57:51;;;;;;;1.53;0.90;;;15.80;98.20;;;;;;5005820;28;20519;-78
2021/10/07 10:00:19;;;;;;;2.03;1.83;;;15.80;98.20;;;;;;5007371;28;21082;-79
2021/10/07 10:02:46;;;;;;;1.50;0.90;;;15.80;98.20;;;;;;5015453;28;20480;-78
2021/10/07 10:05:13;;;;;;;1.53;1.00;;;15.70;98.20;;;;;;5014350;28;20573;-77
2021/10/07 10:07:41;;;;;;;1.53;1.00;;;15.70;98.20;;;;;;5008028;28;20498;-78
2021/10/07 10:10:10;;;;;;;1.60;1.00;;;15.70;98.20;;;;;;5006660;28;20472;-78
2021/10/07 10:15:39;;;;;;;1.57;1.00;;;15.60;98.20;;;;;;4987587;28;20464;-77
2021/10/07 10:18:07;;;;;;;1.60;1.20;;;15.60;98.20;;;;;;5016645;28;20911;-77
2021/10/07 10:20:37;;;;;;;1.53;0.90;;;15.60;98.20;;;;;;5005303;28;20717;-76
2021/10/07 10:23:11;;;;;;;1.60;1.10;;;15.70;98.20;;;;;;5019407;28;21017;-77
2021/10/07 10:25:52;;;;;;;1.53;1.00;;;15.70;98.20;;;;;;5006011;28;20990;-77
2021/10/07 10:31:43;;;;;;;1.60;1.00;;;15.80;98.20;;;;;;5001494;28;20482;-77
2021/10/07 10:34:16;;;;;;;1.53;0.90;;;15.90;98.20;;;;;;5017090;28;20506;-77
2021/10/07 10:36:47;;;;;;;1.53;1.00;;;15.90;98.20;;;;;;5006249;28;20518;-77
2021/10/07 10:39:18;;;;;;;1.60;1.07;;;16.00;98.20;;;;;;5018822;28;20503;-77
2021/10/07 10:41:52;;;;;;;1.53;1.00;;;16.10;98.20;;;;;;5005713;28;20522;-78
2021/10/07 10:44:48;;;;;;;1.57;1.00;;;16.10;98.20;;;;;;5018320;28;20470;-77
2021/10/07 10:47:22;;;;;;;1.50;0.90;;;16.20;98.20;;;;;;5011433;28;21115;-77
2021/10/07 10:50:10;;;;;;;1.57;0.97;;;16.20;98.20;;;;;;5012529;28;20456;-76
2021/10/07 10:52:42;;;;;;;1.50;0.90;;;16.30;98.20;;;;;;5005995;28;20491;-76
2021/10/07 10:55:11;;;;;;;1.57;1.00;;;16.30;98.20;;;;;;5011485;28;20487;-77
2021/10/07 10:57:40;;;;;;;1.50;1.00;;;16.40;98.20;;;;;;5010547;28;20912;-78
2021/10/07 11:00:28;;;;;;;1.53;1.00;;;16.40;98.20;;;;;;5007103;28;20838;-77
2021/10/07 11:03:17;;;;;;;1.57;1.00;;;16.30;98.20;;;;;;5017825;28;20479;-77
2021/10/07 11:05:56;;;;;;;1.53;1.00;;;16.40;98.20;;;;;;5007249;28;21033;-77
2021/10/07 11:08:25;;;;;;;1.53;0.90;;;16.40;98.20;;;;;;5010967;28;20483;-77
2021/10/07 11:10:53;;;;;;;1.57;0.90;;;16.40;98.20;;;;;;4998307;28;20459;-76
2021/10/07 11:13:33;;;;;;;1.53;1.00;;;16.40;98.20;;;;;;5021504;28;20489;-76
2021/10/07 11:16:06;;;;;;;1.57;1.00;;;16.50;98.20;;;;;;4997518;28;20472;-77
2021/10/07 11:19:23;;;;;;;;;;;;;;;;;;;;;
2021/10/07 11:22:13;;;;;;;1.50;1.00;;;16.40;98.20;;;;;;4980979;28;20894;-77
2021/10/07 11:24:56;;;;;;;1.53;1.00;;;16.40;98.20;;;;;;5012929;28;20460;-76
2021/10/07 11:31:22;;;;;;;1.53;1.00;;;16.40;98.20;;;;;;4965123;28;20484;-77
2021/10/07 11:33:51;;;;;;;1.57;1.00;;;16.50;98.20;;;;;;5016950;28;20785;-77
2021/10/07 11:36:21;;;;;;;1.53;1.00;;;16.50;98.20;;;;;;4995346;28;20557;-76
2021/10/07 11:38:51;;;;;;;1.57;1.00;;;16.50;98.20;;;;;;5015601;28;21006;-78
2021/10/07 11:41:21;;;;;;;1.50;1.00;;;16.60;98.20;;;;;;4994692;28;20482;-78
2021/10/07 11:43:51;;;;;;;1.53;1.00;;;16.60;98.20;;;;;;5016303;28;20461;-78
2021/10/07 11:46:20;;;;;;;1.60;1.10;;;16.60;98.20;;;;;;4991145;28;20475;-77
2021/10/07 11:48:48;;;;;;;1.53;1.00;;;16.60;98.20;;;;;;5014624;28;20611;-78
2021/10/07 11:51:19;;;;;;;1.57;1.00;;;16.60;98.20;;;;;;5000463;28;21083;-78
2021/10/07 11:53:50;;;;;;;1.50;1.00;;;16.60;98.20;;;;;;5015602;28;20586;-78
2021/10/07 11:56:20;;;;;;;1.57;1.00;;;16.70;98.20;;;;;;5000390;28;20996;-78
2021/10/07 11:58:50;;;;;;;1.53;1.00;;;16.80;98.20;;;;;;5013105;28;20907;-79
2021/10/07 12:01:17;;;;;;;1.60;1.00;;;17.00;98.20;;;;;;4994977;28;20593;-78
2021/10/07 12:03:45;;;;;;;1.53;1.00;;;17.10;98.20;;;;;;5014117;28;20518;-78
2021/10/07 12:06:14;;;;;;;1.50;0.90;;;17.20;98.20;;;;;;4997483;28;21574;-76
2021/10/07 12:08:46;;;;;;;1.70;1.20;;;17.40;97.80;;;;;;5020440;28;21010;-76
2021/10/07 12:11:14;;;;;;;1.57;1.00;;;17.50;97.70;;;;;;4988557;28;21625;-76
2021/10/07 12:13:45;;;;;;;1.57;1.00;;;17.60;97.70;;;;;;4999511;28;20773;-78
2021/10/07 12:16:14;;;;;;;1.57;0.97;;;17.60;98.20;;;;;;4996927;28;20544;-77
2021/10/07 12:18:42;;;;;;;1.50;0.90;;;17.60;97.30;;;;;;5017425;28;20966;-76
2021/10/07 12:21:13;;;;;;;1.53;1.00;;;17.70;97.40;;;;;;4999531;28;21183;-76
2021/10/07 12:23:50;;;;;;;1.50;0.90;;;17.80;97.10;;;;;;5015875;28;20464;-77
2021/10/07 12:26:26;;;;;;;1.57;1.00;;;17.90;95.70;;;;;;4989609;28;20557;-77
2021/10/07 12:28:55;;;;;;;1.50;1.00;;;17.70;95.20;;;;;;5013828;28;20491;-78
2021/10/07 12:31:23;;;;;;;1.53;1.00;;;17.60;95.90;;;;;;4994178;28;20491;-77
2021/10/07 12:34:01;;;;;;;1.50;1.00;;;17.50;96.70;;;;;;5008972;28;21201;-77
2021/10/07 12:36:40;;;;;;;1.53;1.00;;;17.40;96.40;;;;;;5001410;28;21016;-77
2021/10/07 12:39:20;;;;;;;1.53;1.00;;;17.30;97.00;;;;;;5013430;28;20510;-77
2021/10/07 12:41:49;;;;;;;1.50;1.00;;;17.40;97.20;;;;;;5005938;28;20540;-77
2021/10/07 12:44:21;;;;;;;1.60;1.00;;;17.40;97.00;;;;;;5015621;28;20514;-77
2021/10/07 12:46:50;;;;;;;1.60;1.00;;;17.40;96.50;;;;;;5005101;28;20928;-77
2021/10/07 12:49:17;;;;;;;1.50;0.90;;;17.40;95.80;;;;;;5018586;28;20480;-77
2021/10/07 12:51:48;;;;;;;1.57;1.00;;;17.40;95.00;;;;;;5008695;28;20487;-76
2021/10/07 12:54:16;;;;;;;1.53;0.90;;;17.40;97.40;;;;;;5016494;28;20513;-77
2021/10/07 12:56:45;;;;;;;1.50;1.00;;;17.60;96.00;;;;;;5002606;28;20483;-78
2021/10/07 12:59:13;;;;;;;1.50;0.90;;;17.70;96.40;;;;;;5017721;28;20852;-77
2021/10/07 13:01:44;;;;;;;1.50;1.00;;;17.90;94.40;;;;;;5005523;28;20580;-77
2021/10/07 13:04:21;;;;;;;1.60;1.00;;;18.10;93.30;;;;;;5024629;28;20459;-77
2021/10/07 13:06:53;;;;;;;1.53;0.90;;;18.20;93.40;;;;;;5006174;28;20591;-78
2021/10/07 13:09:35;;;;;;;1.50;0.93;;;18.30;93.00;;;;;;5012508;28;20573;-77
2021/10/07 13:12:02;;;;;;;1.53;0.90;;;18.40;93.10;;;;;;5010155;28;20491;-78
2021/10/07 13:14:29;;;;;;;1.53;1.10;;;18.50;91.00;;;;;;5016683;28;20508;-77
2021/10/07 13:16:58;;;;;;;1.50;1.00;;;18.40;91.30;;;;;;5007364;28;20510;-77
2021/10/07 13:19:25;;;;;;;1.57;1.00;;;18.40;91.90;;;;;;5014769;28;20582;-78
2021/10/07 13:21:52;;;;;;;1.57;1.00;;;18.40;91.90;;;;;;5005666;28;20998;-78
2021/10/07 13:24:24;;;;;;;1.53;1.00;;;18.30;92.50;;;;;;5016362;28;20547;-77
2021/10/07 13:26:57;;;;;;;1.57;1.00;;;18.20;92.80;;;;;;4993294;28;21113;-78
2021/10/07 13:29:27;;;;;;;1.57;1.00;;;18.10;92.60;;;;;;5013375;28;20956;-77
2021/10/07 13:31:55;;;;;;;1.57;1.00;;;18.00;92.90;;;;;;5003980;28;20508;-77
2021/10/07 13:34:23;;;;;;;1.57;0.90;;;17.90;93.60;;;;;;5019454;28;20574;-77
2021/10/07 13:36:51;;;;;;;1.60;1.00;;;18.00;94.40;;;;;;5003891;28;20514;-77
2021/10/07 13:39:17;;;;;;;1.50;0.90;;;18.00;93.50;;;;;;5013761;28;20501;-77
2021/10/07 13:41:44;;;;;;;1.60;1.10;;;18.10;91.50;;;;;;5002705;28;20480;-77
2021/10/07 13:44:11;;;;;;;1.53;0.90;;;18.10;91.40;;;;;;5019085;28;20974;-76
2021/10/07 13:46:39;;;;;;;1.50;1.00;;;18.00;91.20;;;;;;5004582;28;20841;-76
2021/10/07 13:49:06;;;;;;;1.53;0.90;;;18.00;91.60;;;;;;5015227;28;21045;-78
2021/10/07 13:51:43;;;;;;;1.60;1.20;;;18.10;92.60;;;;;;5006622;28;20519;-77
2021/10/07 13:54:11;;;;;;;1.53;0.97;;;18.10;93.50;;;;;;5020341;28;20490;-78
2021/10/07 13:56:47;;;;;;;1.53;0.97;;;18.20;92.20;;;;;;5000836;28;20487;-77
2021/10/07 13:59:16;;;;;;;1.50;0.90;;;18.30;92.80;;;;;;5018542;28;20495;-77
2021/10/07 14:01:46;;;;;;;1.53;1.00;;;18.30;93.80;;;;;;5003825;28;20486;-78
2021/10/07 14:04:17;;;;;;;1.50;1.00;;;18.30;93.00;;;;;;5020255;28;20591;-77
2021/10/07 14:06:45;;;;;;;1.50;0.90;;;18.40;93.10;;;;;;5001619;28;20570;-77
2021/10/07 14:09:12;;;;;;;1.50;1.00;;;18.50;93.20;;;;;;5013222;28;20488;-77